Time;durP1;ratioP1;P1;durP2;ratioP2;P2;SDS_P1;SDS_P2;PMS_P1;PMS_P2;Temp;Humidity;BMP_temperature;BMP_pressure;BME280_temperature;BME280_humidity;BME280_pressure;Samples;Min_cycle;Max_cycle;Signal;HPM_P1;HPM_P2
2023/08/29 00:01:05;;;;;;;4.20;3.90;;;;;;;;;;5021618;28;20206;-71
2023/08/29 00:03:33;;;;;;;4.30;3.95;;;;;;;;;;5018687;28;20200;-73
2023/08/29 00:06:01;;;;;;;4.25;3.95;;;;;;;;;;5023357;28;20238;-72
2023/08/29 00:08:28;;;;;;;5.10;4.70;;;;;;;;;;5018409;28;20208;-71
2023/08/29 00:10:58;;;;;;;4.72;4.35;;;;;;;;;;5024744;28;20215;-71
2023/08/29 00:13:26;;;;;;;4.35;4.05;;;;;;;;;;5021804;28;20207;-72
2023/08/29 00:15:55;;;;;;;4.40;3.80;;;;;;;;;;5017735;28;20311;-72
2023/08/29 00:18:22;;;;;;;4.93;3.95;;;;;;;;;;5023772;28;20295;-72
2023/08/29 00:20:49;;;;;;;4.72;4.28;;;;;;;;;;5024112;28;20214;-72
2023/08/29 00:23:16;;;;;;;4.93;3.63;;;;;;;;;;5023646;28;20196;-70
2023/08/29 00:25:43;;;;;;;4.00;3.70;;;;;;;;;;5023635;28;20204;-72
2023/08/29 00:28:11;;;;;;;4.78;3.70;;;;;;;;;;5025207;28;20221;-72
2023/08/29 00:30:39;;;;;;;4.25;3.90;;;;;;;;;;5025340;28;20215;-71
2023/08/29 00:33:09;;;;;;;4.57;4.18;;;;;;;;;;5021954;28;20204;-72
2023/08/29 00:35:37;;;;;;;5.18;4.78;;;;;;;;;;5024292;28;20208;-70
2023/08/29 00:38:04;;;;;;;4.55;4.18;;;;;;;;;;5027125;28;20196;-72
2023/08/29 00:40:31;;;;;;;4.30;4.00;;;;;;;;;;5028074;28;20214;-71
2023/08/29 00:42:59;;;;;;;3.72;3.42;;;;;;;;;;5021355;28;20209;-72
2023/08/29 00:45:26;;;;;;;5.43;3.90;;;;;;;;;;5024320;28;20275;-72
2023/08/29 00:47:54;;;;;;;4.15;3.53;;;;;;;;;;5022425;28;20201;-71
2023/08/29 00:50:22;;;;;;;3.67;3.42;;;;;;;;;;5022750;28;20201;-72
2023/08/29 00:52:50;;;;;;;4.65;3.40;;;;;;;;;;5022050;28;20219;-72
2023/08/29 00:55:17;;;;;;;3.90;3.50;;;;;;;;;;5025191;28;20207;-72
2023/08/29 00:57:44;;;;;;;4.55;4.15;;;;;;;;;;5023175;28;20323;-72
2023/08/29 01:00:12;;;;;;;4.45;4.15;;;;;;;;;;5024808;28;20212;-71
2023/08/29 01:02:39;;;;;;;4.68;4.10;;;;;;;;;;5022972;28;20197;-72
2023/08/29 01:05:06;;;;;;;4.10;3.75;;;;;;;;;;5025832;28;20240;-73
2023/08/29 01:07:35;;;;;;;5.07;3.97;;;;;;;;;;5025642;28;20196;-72
2023/08/29 01:10:02;;;;;;;5.70;3.60;;;;;;;;;;5022719;28;20200;-72
2023/08/29 01:12:36;;;;;;;4.03;3.72;;;;;;;;;;5021263;28;20392;-73
2023/08/29 01:15:09;;;;;;;4.15;3.75;;;;;;;;;;5021829;28;20272;-73
2023/08/29 01:17:40;;;;;;;4.72;4.43;;;;;;;;;;5022311;28;20232;-72
2023/08/29 01:20:08;;;;;;;4.38;4.07;;;;;;;;;;5022626;28;20230;-72
2023/08/29 01:22:39;;;;;;;5.00;4.60;;;;;;;;;;5025061;28;20208;-72
2023/08/29 01:25:17;;;;;;;5.55;5.05;;;;;;;;;;5025038;28;20601;-74
2023/08/29 01:27:46;;;;;;;4.50;4.10;;;;;;;;;;5023400;28;20205;-73
2023/08/29 01:30:14;;;;;;;5.05;4.60;;;;;;;;;;5022617;28;20217;-73
2023/08/29 01:32:42;;;;;;;4.68;4.38;;;;;;;;;;5023381;28;20201;-73
2023/08/29 01:35:13;;;;;;;5.28;4.78;;;;;;;;;;5023271;28;20209;-72
2023/08/29 01:37:40;;;;;;;5.72;5.22;;;;;;;;;;5032020;28;20232;-71
2023/08/29 01:40:07;;;;;;;5.35;4.85;;;;;;;;;;5020870;28;20211;-73
2023/08/29 01:42:36;;;;;;;5.30;4.90;;;;;;;;;;5021285;28;20206;-73
2023/08/29 01:45:04;;;;;;;5.18;4.78;;;;;;;;;;5018999;28;20204;-73
2023/08/29 01:47:32;;;;;;;5.22;4.80;;;;;;;;;;5023499;28;20203;-72
2023/08/29 01:50:00;;;;;;;5.70;5.20;;;;;;;;;;5024021;28;20204;-72
2023/08/29 01:52:27;;;;;;;5.13;4.72;;;;;;;;;;5024457;28;20330;-70
2023/08/29 01:54:54;;;;;;;5.55;5.05;;;;;;;;;;5027835;28;20231;-72
2023/08/29 01:57:21;;;;;;;5.40;4.97;;;;;;;;;;5025247;28;20228;-73
2023/08/29 01:59:49;;;;;;;6.70;5.25;;;;;;;;;;5022021;28;20204;-72
2023/08/29 02:02:17;;;;;;;5.38;4.97;;;;;;;;;;5024290;28;20201;-73
2023/08/29 02:04:44;;;;;;;5.60;5.10;;;;;;;;;;5026110;28;20227;-73
2023/08/29 02:07:11;;;;;;;5.88;5.38;;;;;;;;;;5024510;28;20226;-66
2023/08/29 02:09:39;;;;;;;7.40;6.80;;;;;;;;;;5020670;28;20209;-66
2023/08/29 02:12:06;;;;;;;9.98;9.15;;;;;;;;;;5020206;28;20204;-66
2023/08/29 02:14:33;;;;;;;10.27;9.25;;;;;;;;;;5020118;28;20219;-66
2023/08/29 02:17:01;;;;;;;7.18;6.57;;;;;;;;;;5021851;28;20228;-66
2023/08/29 02:19:29;;;;;;;7.28;6.60;;;;;;;;;;5019506;28;20244;-66
2023/08/29 02:21:56;;;;;;;6.72;6.13;;;;;;;;;;5018924;28;20212;-66
2023/08/29 02:24:23;;;;;;;7.00;6.30;;;;;;;;;;5020030;28;20200;-66
2023/08/29 02:26:50;;;;;;;6.82;6.32;;;;;;;;;;5022196;28;20220;-66
2023/08/29 02:29:17;;;;;;;6.88;6.38;;;;;;;;;;5022629;28;20325;-66
2023/08/29 02:31:45;;;;;;;7.38;6.68;;;;;;;;;;5023623;28;20206;-65
2023/08/29 02:34:12;;;;;;;6.72;6.22;;;;;;;;;;5017650;28;20208;-66
2023/08/29 02:36:40;;;;;;;6.15;5.55;;;;;;;;;;5025669;28;20231;-66
2023/08/29 02:39:08;;;;;;;6.50;5.90;;;;;;;;;;5022982;28;20213;-66
2023/08/29 02:41:35;;;;;;;6.43;5.93;;;;;;;;;;5026256;28;20211;-66
2023/08/29 02:44:03;;;;;;;6.10;5.60;;;;;;;;;;5017133;28;20295;-66
2023/08/29 02:46:30;;;;;;;5.85;5.35;;;;;;;;;;5021715;28;20200;-66
2023/08/29 02:48:57;;;;;;;5.93;5.38;;;;;;;;;;5022919;28;20201;-66
2023/08/29 02:51:24;;;;;;;6.03;5.53;;;;;;;;;;5023133;28;20207;-66
2023/08/29 02:53:52;;;;;;;5.82;5.32;;;;;;;;;;5023537;28;20207;-66
2023/08/29 02:56:19;;;;;;;4.95;4.55;;;;;;;;;;5020399;28;20287;-66
2023/08/29 02:58:47;;;;;;;6.40;5.80;;;;;;;;;;5016101;28;20236;-66
2023/08/29 03:01:14;;;;;;;5.50;5.00;;;;;;;;;;5020637;28;20204;-66
2023/08/29 03:03:41;;;;;;;5.55;5.15;;;;;;;;;;5027528;28;20205;-66
2023/08/29 03:06:08;;;;;;;5.53;5.10;;;;;;;;;;5020057;28;20236;-66
2023/08/29 03:08:36;;;;;;;6.22;5.72;;;;;;;;;;5028288;28;20205;-66
2023/08/29 03:11:05;;;;;;;6.70;6.00;;;;;;;;;;5025740;28;20221;-66
2023/08/29 03:13:32;;;;;;;5.88;5.45;;;;;;;;;;5022993;28;20213;-66
2023/08/29 03:16:00;;;;;;;6.78;6.22;;;;;;;;;;5015998;28;20204;-66
2023/08/29 03:18:27;;;;;;;7.53;6.93;;;;;;;;;;5020886;28;20227;-66
2023/08/29 03:20:54;;;;;;;7.22;6.60;;;;;;;;;;5024709;28;20199;-66
2023/08/29 03:23:22;;;;;;;6.30;5.90;;;;;;;;;;5021523;28;20212;-67
2023/08/29 03:25:49;;;;;;;6.43;5.85;;;;;;;;;;5018567;28;20208;-66
2023/08/29 03:28:17;;;;;;;7.15;6.57;;;;;;;;;;5021145;28;20216;-67
2023/08/29 03:30:45;;;;;;;8.20;7.40;;;;;;;;;;5019366;28;20204;-67
2023/08/29 03:33:12;;;;;;;8.23;7.43;;;;;;;;;;5021399;28;20220;-66
2023/08/29 03:35:39;;;;;;;8.32;7.63;;;;;;;;;;5021725;28;20231;-66
2023/08/29 03:38:07;;;;;;;7.57;6.97;;;;;;;;;;5021429;28;20220;-66
2023/08/29 03:40:34;;;;;;;8.75;8.05;;;;;;;;;;5019564;28;20211;-66
2023/08/29 03:43:01;;;;;;;7.22;6.55;;;;;;;;;;5017853;28;20200;-66
2023/08/29 03:45:29;;;;;;;7.78;7.18;;;;;;;;;;5021031;28;20238;-66
2023/08/29 03:47:56;;;;;;;7.13;6.63;;;;;;;;;;5016508;28;20200;-66
2023/08/29 03:50:23;;;;;;;7.45;6.85;;;;;;;;;;5025508;28;20208;-66
2023/08/29 03:52:50;;;;;;;7.60;6.80;;;;;;;;;;5019288;28;20215;-67
2023/08/29 03:55:17;;;;;;;6.70;6.20;;;;;;;;;;5027267;28;20201;-66
2023/08/29 03:57:45;;;;;;;7.97;7.38;;;;;;;;;;5020968;28;20227;-66
2023/08/29 04:00:13;;;;;;;8.07;6.60;;;;;;;;;;5018360;28;20218;-66
2023/08/29 04:02:42;;;;;;;8.07;7.38;;;;;;;;;;5025750;28;20203;-67
2023/08/29 04:05:14;;;;;;;7.10;6.57;;;;;;;;;;5022181;28;20307;-67
2023/08/29 04:07:41;;;;;;;7.40;6.72;;;;;;;;;;5019377;28;20281;-66
2023/08/29 04:10:09;;;;;;;7.70;7.10;;;;;;;;;;5018489;28;20798;-67
2023/08/29 04:12:36;;;;;;;7.80;6.97;;;;;;;;;;5021451;28;20201;-67
2023/08/29 04:15:03;;;;;;;7.30;6.80;;;;;;;;;;5021416;28;20211;-66
2023/08/29 04:17:30;;;;;;;8.20;7.60;;;;;;;;;;5018761;28;20315;-67
2023/08/29 04:20:00;;;;;;;7.40;6.90;;;;;;;;;;5019689;28;20200;-67
2023/08/29 04:22:27;;;;;;;7.40;6.80;;;;;;;;;;5020740;28;20207;-67
2023/08/29 04:24:54;;;;;;;8.77;8.07;;;;;;;;;;5017413;28;20209;-67
2023/08/29 04:27:21;;;;;;;9.10;8.40;;;;;;;;;;5018484;28;20203;-72
2023/08/29 04:29:49;;;;;;;8.55;7.85;;;;;;;;;;5020236;28;20208;-73
2023/08/29 04:32:16;;;;;;;8.63;7.93;;;;;;;;;;5020155;28;20211;-73
2023/08/29 04:34:43;;;;;;;8.88;8.18;;;;;;;;;;5021264;28;20204;-72
2023/08/29 04:37:11;;;;;;;10.57;9.60;;;;;;;;;;5021452;28;20208;-73
2023/08/29 04:39:39;;;;;;;9.43;8.63;;;;;;;;;;5019230;28;20208;-71
2023/08/29 04:42:08;;;;;;;9.50;8.70;;;;;;;;;;5019143;28;20506;-70
2023/08/29 04:44:36;;;;;;;8.13;7.43;;;;;;;;;;5019472;28;20217;-72
2023/08/29 04:47:03;;;;;;;8.55;7.85;;;;;;;;;;5019597;28;20224;-73
2023/08/29 04:49:33;;;;;;;8.60;8.00;;;;;;;;;;5020841;28;20215;-72
2023/08/29 04:52:00;;;;;;;10.02;9.23;;;;;;;;;;5017629;28;20275;-73
2023/08/29 04:54:28;;;;;;;9.30;8.57;;;;;;;;;;5021497;28;20196;-73
2023/08/29 04:56:55;;;;;;;9.57;8.77;;;;;;;;;;5019930;28;20212;-71
2023/08/29 04:59:22;;;;;;;8.77;8.02;;;;;;;;;;5017013;28;20228;-73
2023/08/29 05:01:49;;;;;;;9.55;8.75;;;;;;;;;;5016390;28;20200;-73
2023/08/29 05:04:17;;;;;;;8.10;7.40;;;;;;;;;;5019827;28;20704;-73
2023/08/29 05:06:45;;;;;;;10.60;9.52;;;;;;;;;;5022793;28;20208;-72
2023/08/29 05:09:12;;;;;;;9.98;9.18;;;;;;;;;;5022061;28;20239;-73
2023/08/29 05:11:40;;;;;;;9.63;8.85;;;;;;;;;;5024284;28;20215;-73
2023/08/29 05:14:07;;;;;;;10.23;9.32;;;;;;;;;;5030130;28;20215;-73
2023/08/29 05:16:35;;;;;;;10.27;9.38;;;;;;;;;;5024603;28;20296;-72
2023/08/29 05:19:04;;;;;;;10.07;9.18;;;;;;;;;;5013878;28;20255;-73
2023/08/29 05:21:31;;;;;;;10.35;9.40;;;;;;;;;;5024384;28;20210;-73
2023/08/29 05:23:58;;;;;;;10.02;9.13;;;;;;;;;;5019859;28;20212;-71
2023/08/29 05:26:26;;;;;;;10.80;10.00;;;;;;;;;;5025763;28;20204;-72
2023/08/29 05:28:54;;;;;;;9.32;8.55;;;;;;;;;;5020559;28;20192;-72
2023/08/29 05:31:21;;;;;;;8.48;7.78;;;;;;;;;;5024604;28;20219;-73
2023/08/29 05:33:48;;;;;;;8.48;7.75;;;;;;;;;;5025288;28;20219;-72
2023/08/29 05:36:15;;;;;;;8.48;7.80;;;;;;;;;;5021794;28;20239;-73
2023/08/29 05:38:43;;;;;;;8.52;7.90;;;;;;;;;;5021978;28;20229;-70
2023/08/29 05:41:10;;;;;;;9.10;8.30;;;;;;;;;;5024308;28;20208;-73
2023/08/29 05:43:37;;;;;;;8.38;7.78;;;;;;;;;;5021501;28;20208;-73
2023/08/29 05:46:06;;;;;;;8.30;7.70;;;;;;;;;;5017010;28;20206;-72
2023/08/29 05:48:33;;;;;;;9.45;8.65;;;;;;;;;;5020926;28;20223;-73
2023/08/29 05:51:00;;;;;;;10.65;9.65;;;;;;;;;;5018368;28;20212;-73
2023/08/29 05:53:27;;;;;;;9.85;8.07;;;;;;;;;;5021469;28;20208;-72
2023/08/29 05:55:54;;;;;;;8.63;7.93;;;;;;;;;;5021921;28;20207;-73
2023/08/29 05:58:22;;;;;;;7.53;6.93;;;;;;;;;;5019462;28;20221;-72
2023/08/29 06:00:49;;;;;;;8.15;7.45;;;;;;;;;;5016602;28;20368;-72
2023/08/29 06:03:17;;;;;;;7.57;6.97;;;;;;;;;;5018334;28;20207;-73
2023/08/29 06:05:44;;;;;;;7.85;7.18;;;;;;;;;;5011061;28;20820;-73
2023/08/29 06:08:12;;;;;;;8.63;7.93;;;;;;;;;;5018777;28;20196;-72
2023/08/29 06:10:39;;;;;;;8.60;7.90;;;;;;;;;;5015566;28;20250;-73
2023/08/29 06:13:06;;;;;;;7.18;6.68;;;;;;;;;;5019204;28;20204;-73
2023/08/29 06:15:33;;;;;;;7.15;6.55;;;;;;;;;;5000262;28;20225;-73
2023/08/29 06:18:00;;;;;;;7.50;6.80;;;;;;;;;;5000789;28;20249;-72
2023/08/29 06:20:29;;;;;;;6.88;6.18;;;;;;;;;;4996705;28;20201;-73
2023/08/29 06:22:58;;;;;;;7.80;7.20;;;;;;;;;;4999666;28;20212;-73
2023/08/29 06:25:25;;;;;;;6.45;5.95;;;;;;;;;;4999657;28;20226;-73
2023/08/29 06:27:52;;;;;;;7.93;7.22;;;;;;;;;;5000800;28;20209;-73
2023/08/29 06:30:19;;;;;;;7.25;6.68;;;;;;;;;;5000573;28;20205;-73
2023/08/29 06:32:46;;;;;;;7.50;6.90;;;;;;;;;;5000475;28;20223;-73
2023/08/29 06:35:14;;;;;;;6.50;6.00;;;;;;;;;;4999795;28;20580;-72
2023/08/29 06:37:43;;;;;;;7.82;7.22;;;;;;;;;;5005015;28;20215;-71
2023/08/29 06:40:10;;;;;;;8.00;7.20;;;;;;;;;;5000440;28;20201;-73
2023/08/29 06:42:38;;;;;;;8.27;7.55;;;;;;;;;;5000597;28;20219;-72
2023/08/29 06:45:05;;;;;;;8.60;7.90;;;;;;;;;;4998994;28;20205;-70
2023/08/29 06:47:32;;;;;;;7.68;7.10;;;;;;;;;;4999520;28;20201;-66
2023/08/29 06:49:59;;;;;;;8.23;7.53;;;;;;;;;;5000206;28;20204;-67
2023/08/29 06:52:28;;;;;;;7.97;7.28;;;;;;;;;;5000429;28;20197;-66
2023/08/29 06:54:56;;;;;;;6.80;6.15;;;;;;;;;;4998442;28;20205;-66
2023/08/29 06:57:24;;;;;;;8.15;7.45;;;;;;;;;;4997831;28;20212;-66
2023/08/29 06:59:52;;;;;;;8.57;7.45;;;;;;;;;;4999673;28;20228;-67
2023/08/29 07:02:19;;;;;;;9.63;7.13;;;;;;;;;;4998111;28;20213;-66
2023/08/29 07:04:47;;;;;;;8.48;7.65;;;;;;;;;;4994102;28;20273;-66
2023/08/29 07:07:14;;;;;;;7.32;6.72;;;;;;;;;;4997614;28;20201;-66
2023/08/29 07:09:43;;;;;;;8.68;7.88;;;;;;;;;;5006909;28;20215;-66
2023/08/29 07:12:11;;;;;;;8.13;7.47;;;;;;;;;;5001037;28;20216;-65
2023/08/29 07:14:38;;;;;;;7.72;7.13;;;;;;;;;;4998780;28;20205;-66
2023/08/29 07:17:06;;;;;;;7.90;7.30;;;;;;;;;;5002904;28;20205;-66
2023/08/29 07:19:33;;;;;;;7.60;7.00;;;;;;;;;;4995914;28;20223;-65
2023/08/29 07:22:01;;;;;;;9.25;8.50;;;;;;;;;;5007495;28;20211;-66
2023/08/29 07:24:28;;;;;;;10.20;9.40;;;;;;;;;;5004121;28;20201;-65
2023/08/29 07:26:55;;;;;;;9.85;9.07;;;;;;;;;;5007200;28;20193;-66
2023/08/29 07:29:23;;;;;;;10.07;9.23;;;;;;;;;;5006261;28;20215;-66
2023/08/29 07:31:50;;;;;;;10.98;10.02;;;;;;;;;;4994575;28;20209;-66
2023/08/29 07:34:17;;;;;;;14.70;13.40;;;;;;;;;;4998520;28;20193;-66
2023/08/29 07:36:44;;;;;;;10.60;9.60;;;;;;;;;;4999643;28;20208;-66
2023/08/29 07:39:14;;;;;;;11.02;9.90;;;;;;;;;;5007751;28;20216;-66
2023/08/29 07:41:41;;;;;;;14.07;12.88;;;;;;;;;;5005507;28;20232;-67
2023/08/29 07:44:09;;;;;;;11.38;10.38;;;;;;;;;;5004116;28;20201;-66
2023/08/29 07:46:37;;;;;;;10.63;9.73;;;;;;;;;;5003767;28;20211;-66
2023/08/29 07:49:10;;;;;;;13.18;11.98;;;;;;;;;;5006642;28;20292;-67
2023/08/29 07:51:37;;;;;;;16.88;14.35;;;;;;;;;;5001697;28;20232;-66
2023/08/29 07:54:04;;;;;;;13.40;12.20;;;;;;;;;;5009813;28;20204;-66
2023/08/29 07:56:31;;;;;;;13.77;12.55;;;;;;;;;;5002152;28;20209;-71
2023/08/29 07:58:58;;;;;;;12.88;11.70;;;;;;;;;;4994539;28;20225;-72
2023/08/29 08:01:25;;;;;;;14.20;12.80;;;;;;;;;;4994912;28;20198;-71
2023/08/29 08:03:54;;;;;;;14.00;12.38;;;;;;;;;;5006799;28;20454;-72
2023/08/29 08:06:21;;;;;;;13.77;12.57;;;;;;;;;;5006814;28;20220;-72
2023/08/29 08:08:48;;;;;;;11.85;10.73;;;;;;;;;;5003497;28;20217;-72
2023/08/29 08:11:15;;;;;;;13.77;12.43;;;;;;;;;;4991644;28;20213;-72
2023/08/29 08:13:42;;;;;;;13.82;12.30;;;;;;;;;;4996120;28;20209;-72
2023/08/29 08:16:09;;;;;;;16.15;14.65;;;;;;;;;;5008890;28;20212;-71
2023/08/29 08:18:36;;;;;;;17.35;15.57;;;;;;;;;;4995810;28;20523;-72
2023/08/29 08:21:05;;;;;;;17.40;14.30;;;;;;;;;;4994140;28;20212;-72
2023/08/29 08:23:32;;;;;;;15.73;14.07;;;;;;;;;;5003391;28;20205;-72
2023/08/29 08:25:59;;;;;;;15.57;13.90;;;;;;;;;;4999408;28;20209;-72
2023/08/29 08:28:27;;;;;;;15.15;13.75;;;;;;;;;;5000004;28;20227;-72
2023/08/29 08:30:54;;;;;;;16.13;14.52;;;;;;;;;;4996995;28;20264;-70
2023/08/29 08:33:21;;;;;;;15.40;13.90;;;;;;;;;;5005200;28;20198;-72
2023/08/29 08:35:48;;;;;;;16.15;14.48;;;;;;;;;;5002349;28;20209;-72
2023/08/29 08:38:16;;;;;;;14.88;13.48;;;;;;;;;;5002301;28;20210;-71
2023/08/29 08:40:43;;;;;;;15.57;13.98;;;;;;;;;;5005815;28;20228;-71
2023/08/29 08:43:11;;;;;;;16.70;15.00;;;;;;;;;;5006367;28;20210;-71
2023/08/29 08:45:38;;;;;;;16.60;14.88;;;;;;;;;;5002617;28;20213;-72
2023/08/29 08:48:05;;;;;;;14.38;13.02;;;;;;;;;;5000319;28;20209;-71
2023/08/29 08:50:32;;;;;;;18.10;14.80;;;;;;;;;;5003417;28;20202;-70
2023/08/29 08:53:00;;;;;;;14.70;12.50;;;;;;;;;;5002666;28;20204;-71
2023/08/29 08:55:29;;;;;;;15.35;13.75;;;;;;;;;;5003655;28;20205;-72
2023/08/29 08:57:57;;;;;;;15.85;14.35;;;;;;;;;;5003590;28;20216;-72
2023/08/29 09:00:24;;;;;;;16.95;15.23;;;;;;;;;;5007657;28;20227;-71
2023/08/29 09:02:52;;;;;;;18.08;16.15;;;;;;;;;;5005565;28;20202;-71
2023/08/29 09:05:20;;;;;;;15.75;14.02;;;;;;;;;;5003172;28;20237;-71
2023/08/29 09:07:47;;;;;;;17.63;15.52;;;;;;;;;;5009028;28;20208;-65
2023/08/29 09:10:15;;;;;;;18.10;16.17;;;;;;;;;;5005295;28;20204;-67
2023/08/29 09:12:50;;;;;;;18.02;15.32;;;;;;;;;;5006008;28;20204;-67
2023/08/29 09:15:19;;;;;;;19.65;16.30;;;;;;;;;;5003496;28;20215;-66
2023/08/29 09:17:47;;;;;;;17.00;15.02;;;;;;;;;;5008700;28;20200;-65
2023/08/29 09:20:14;;;;;;;15.82;14.13;;;;;;;;;;5005599;28;20225;-65
2023/08/29 09:22:42;;;;;;;16.77;13.98;;;;;;;;;;5008378;28;20209;-65
2023/08/29 09:25:10;;;;;;;16.33;14.07;;;;;;;;;;5003962;28;20209;-65
2023/08/29 09:27:41;;;;;;;14.18;12.77;;;;;;;;;;5006735;28;20263;-65
2023/08/29 09:30:11;;;;;;;14.35;12.75;;;;;;;;;;5003344;28;20208;-65
2023/08/29 09:32:38;;;;;;;12.85;11.32;;;;;;;;;;5004801;28;20280;-65
2023/08/29 09:35:06;;;;;;;14.32;12.48;;;;;;;;;;5005507;28;20215;-65
2023/08/29 09:37:33;;;;;;;13.30;12.00;;;;;;;;;;5005257;28;20240;-64
2023/08/29 09:40:04;;;;;;;15.02;13.52;;;;;;;;;;5001120;28;20224;-65
2023/08/29 09:42:31;;;;;;;15.02;13.50;;;;;;;;;;5003990;28;20216;-65
2023/08/29 09:44:58;;;;;;;14.73;13.23;;;;;;;;;;5006687;28;20220;-65
2023/08/29 09:47:26;;;;;;;15.35;13.35;;;;;;;;;;5005954;28;20200;-64
2023/08/29 09:49:53;;;;;;;13.95;11.68;;;;;;;;;;5000643;28;20201;-65
2023/08/29 09:52:20;;;;;;;10.82;9.73;;;;;;;;;;5002957;28;20220;-67
2023/08/29 09:54:49;;;;;;;11.80;10.60;;;;;;;;;;4997446;28;20209;-65
2023/08/29 09:57:18;;;;;;;12.38;11.00;;;;;;;;;;4993662;28;20209;-65
2023/08/29 09:59:45;;;;;;;11.75;10.55;;;;;;;;;;4999887;28;20236;-65
2023/08/29 10:02:13;;;;;;;11.65;10.10;;;;;;;;;;5004126;28;20209;-66
2023/08/29 10:04:43;;;;;;;11.95;10.60;;;;;;;;;;5003623;28;20252;-65
2023/08/29 10:07:13;;;;;;;17.33;12.43;;;;;;;;;;5005274;28;20211;-65
2023/08/29 10:09:40;;;;;;;12.05;10.80;;;;;;;;;;5007227;28;20212;-64
2023/08/29 10:12:07;;;;;;;12.43;9.70;;;;;;;;;;5002587;28;20395;-66
2023/08/29 10:14:35;;;;;;;10.93;9.45;;;;;;;;;;5003429;28;20220;-65
2023/08/29 10:17:03;;;;;;;12.05;8.93;;;;;;;;;;5003726;28;20213;-65
2023/08/29 10:19:30;;;;;;;9.45;7.75;;;;;;;;;;5007030;28;20244;-64
2023/08/29 10:21:59;;;;;;;9.13;7.68;;;;;;;;;;5005884;28;20205;-64
2023/08/29 10:24:28;;;;;;;8.77;7.85;;;;;;;;;;5007226;28;20209;-65
2023/08/29 10:26:55;;;;;;;11.10;9.27;;;;;;;;;;5001990;28;20200;-65
2023/08/29 10:29:22;;;;;;;10.88;9.63;;;;;;;;;;5002936;28;20203;-64
2023/08/29 10:31:50;;;;;;;7.80;6.95;;;;;;;;;;5004161;28;20211;-65
2023/08/29 10:34:19;;;;;;;9.40;8.40;;;;;;;;;;5003918;28;20209;-64
2023/08/29 10:36:46;;;;;;;8.23;7.47;;;;;;;;;;5005662;28;20271;-65
2023/08/29 10:39:16;;;;;;;8.95;7.80;;;;;;;;;;4997790;28;20213;-65
2023/08/29 10:41:47;;;;;;;8.90;7.80;;;;;;;;;;4997617;28;20201;-63
2023/08/29 10:44:36;;;;;;;8.13;7.32;;;;;;;;;;5005664;28;20204;-65
2023/08/29 10:47:19;;;;;;;8.57;7.65;;;;;;;;;;4997378;28;20209;-64
2023/08/29 10:49:46;;;;;;;6.68;6.07;;;;;;;;;;5001566;28;20201;-63
2023/08/29 10:52:14;;;;;;;6.72;6.03;;;;;;;;;;4999247;28;20208;-64
2023/08/29 10:54:43;;;;;;;6.78;6.18;;;;;;;;;;5002539;28;20201;-63
2023/08/29 10:57:28;;;;;;;6.28;5.70;;;;;;;;;;5006990;28;20206;-64
2023/08/29 10:59:56;;;;;;;6.28;5.78;;;;;;;;;;5004897;28;20231;-63
2023/08/29 11:02:23;;;;;;;6.15;5.65;;;;;;;;;;5000258;28;20197;-65
2023/08/29 11:04:52;;;;;;;4.65;4.25;;;;;;;;;;5003395;28;20252;-64
2023/08/29 11:07:26;;;;;;;5.50;4.88;;;;;;;;;;5001032;28;20212;-64
2023/08/29 11:10:12;;;;;;;5.25;4.75;;;;;;;;;;5000206;28;20223;-62
2023/08/29 11:13:00;;;;;;;4.70;4.20;;;;;;;;;;5000950;28;20205;-63
2023/08/29 11:16:00;;;;;;;5.45;4.95;;;;;;;;;;4998435;28;20201;-63
2023/08/29 11:18:30;;;;;;;4.72;4.30;;;;;;;;;;4997955;28;20340;-63
2023/08/29 11:20:57;;;;;;;5.60;4.65;;;;;;;;;;5000029;28;20235;-63
2023/08/29 11:23:24;;;;;;;5.38;4.75;;;;;;;;;;4993657;28;20221;-64
2023/08/29 11:25:52;;;;;;;4.57;3.92;;;;;;;;;;5000997;28;20221;-63
2023/08/29 11:28:20;;;;;;;5.00;4.13;;;;;;;;;;5000405;28;20304;-62
2023/08/29 11:30:47;;;;;;;4.40;4.00;;;;;;;;;;4996329;28;20236;-63
2023/08/29 11:33:15;;;;;;;4.70;4.30;;;;;;;;;;5005961;28;20216;-63
2023/08/29 11:35:43;;;;;;;4.43;3.67;;;;;;;;;;4999773;28;20231;-63
2023/08/29 11:38:11;;;;;;;4.43;3.78;;;;;;;;;;4993562;28;20205;-64
2023/08/29 11:40:39;;;;;;;5.00;4.53;;;;;;;;;;5001191;28;20225;-63
2023/08/29 11:43:06;;;;;;;4.45;4.05;;;;;;;;;;5001770;28;20236;-64
2023/08/29 11:45:40;;;;;;;6.13;4.03;;;;;;;;;;4996815;28;20209;-64
2023/08/29 11:48:08;;;;;;;5.03;4.00;;;;;;;;;;5001278;28;20304;-62
2023/08/29 11:50:35;;;;;;;4.40;4.03;;;;;;;;;;4997454;28;20209;-63
2023/08/29 11:53:08;;;;;;;6.50;5.90;;;;;;;;;;5003193;28;20220;-63
2023/08/29 11:55:36;;;;;;;6.60;5.90;;;;;;;;;;5004495;28;20209;-63
2023/08/29 11:58:04;;;;;;;5.93;5.32;;;;;;;;;;5002965;28;20200;-64
2023/08/29 12:00:32;;;;;;;5.18;4.70;;;;;;;;;;5001695;28;20213;-63
2023/08/29 12:02:59;;;;;;;5.38;4.88;;;;;;;;;;4999912;28;20217;-63
2023/08/29 12:05:27;;;;;;;5.78;5.18;;;;;;;;;;5015795;28;20236;-64
2023/08/29 12:07:54;;;;;;;6.88;4.93;;;;;;;;;;4995298;28;20201;-64
2023/08/29 12:10:25;;;;;;;6.13;5.47;;;;;;;;;;5002002;28;20201;-65
2023/08/29 12:12:52;;;;;;;5.30;4.90;;;;;;;;;;4998467;28;20263;-63
2023/08/29 12:15:20;;;;;;;5.20;4.70;;;;;;;;;;5008407;28;20207;-63
2023/08/29 12:17:47;;;;;;;5.47;5.00;;;;;;;;;;5002776;28;20255;-64
2023/08/29 12:20:29;;;;;;;6.03;4.88;;;;;;;;;;5003441;28;20224;-65
2023/08/29 12:22:56;;;;;;;6.53;5.60;;;;;;;;;;5002215;28;20208;-63
2023/08/29 12:25:26;;;;;;;8.13;5.40;;;;;;;;;;5002278;28;20208;-63
2023/08/29 12:27:53;;;;;;;6.70;5.05;;;;;;;;;;5001571;28;20201;-63
2023/08/29 12:30:20;;;;;;;7.57;5.72;;;;;;;;;;5004485;28;20207;-64
2023/08/29 12:32:47;;;;;;;6.90;5.43;;;;;;;;;;5003905;28;20220;-63
2023/08/29 12:35:15;;;;;;;5.70;5.20;;;;;;;;;;5001198;28;20209;-64
2023/08/29 12:37:42;;;;;;;5.90;5.30;;;;;;;;;;5008390;28;20209;-67
2023/08/29 12:40:12;;;;;;;5.60;5.10;;;;;;;;;;5004620;28;20225;-68
2023/08/29 12:42:40;;;;;;;5.78;4.85;;;;;;;;;;5003667;28;20205;-67
2023/08/29 12:45:08;;;;;;;5.25;4.75;;;;;;;;;;5002734;28;20214;-67
2023/08/29 12:47:35;;;;;;;5.63;5.10;;;;;;;;;;5000054;28;20208;-67
2023/08/29 12:50:02;;;;;;;4.20;3.80;;;;;;;;;;5005290;28;20197;-68
2023/08/29 12:52:30;;;;;;;5.25;4.55;;;;;;;;;;5000100;28;20236;-69
2023/08/29 12:54:57;;;;;;;5.38;4.10;;;;;;;;;;5002536;28;20468;-67
2023/08/29 12:57:24;;;;;;;6.35;4.20;;;;;;;;;;5005772;28;20215;-68
2023/08/29 12:59:52;;;;;;;4.45;4.15;;;;;;;;;;5003061;28;20212;-68
2023/08/29 13:02:19;;;;;;;4.40;4.00;;;;;;;;;;5000707;28;20201;-68
2023/08/29 13:04:47;;;;;;;4.15;3.70;;;;;;;;;;4998014;28;20274;-68
2023/08/29 13:07:14;;;;;;;4.13;3.83;;;;;;;;;;4999941;28;20209;-68
2023/08/29 13:09:43;;;;;;;5.72;4.05;;;;;;;;;;4998154;28;20217;-67
2023/08/29 13:12:10;;;;;;;5.80;3.58;;;;;;;;;;5002167;28;20215;-69
2023/08/29 13:14:38;;;;;;;3.92;3.53;;;;;;;;;;5005023;28;20219;-69
2023/08/29 13:17:06;;;;;;;4.07;3.67;;;;;;;;;;5010162;28;20211;-67
2023/08/29 13:19:34;;;;;;;3.88;3.58;;;;;;;;;;5006681;28;20215;-68
2023/08/29 13:22:02;;;;;;;4.15;3.60;;;;;;;;;;5005904;28;20231;-67
2023/08/29 13:24:29;;;;;;;4.07;3.63;;;;;;;;;;5001720;28;20221;-67
2023/08/29 13:26:56;;;;;;;4.80;3.72;;;;;;;;;;5001085;28;20216;-67
2023/08/29 13:29:23;;;;;;;5.95;5.20;;;;;;;;;;5004013;28;20215;-68
2023/08/29 13:31:51;;;;;;;6.45;5.25;;;;;;;;;;4998797;28;20205;-69
2023/08/29 13:34:19;;;;;;;6.07;5.50;;;;;;;;;;5007270;28;20350;-69
2023/08/29 13:36:46;;;;;;;6.25;5.72;;;;;;;;;;5006937;28;20209;-68
2023/08/29 13:39:13;;;;;;;6.30;5.80;;;;;;;;;;5000506;28;20205;-68
2023/08/29 13:41:42;;;;;;;5.20;4.80;;;;;;;;;;4998940;28;20225;-69
2023/08/29 13:44:09;;;;;;;5.57;5.18;;;;;;;;;;5004489;28;20210;-68
2023/08/29 13:46:36;;;;;;;5.40;5.00;;;;;;;;;;5006041;28;20216;-68
2023/08/29 13:49:04;;;;;;;6.72;5.15;;;;;;;;;;5001239;28;20207;-64
2023/08/29 13:51:32;;;;;;;6.25;5.25;;;;;;;;;;5001944;28;20207;-63
2023/08/29 13:53:59;;;;;;;4.90;4.50;;;;;;;;;;5000729;28;20209;-64
2023/08/29 13:56:27;;;;;;;4.70;4.30;;;;;;;;;;5004424;28;20205;-63
2023/08/29 13:58:56;;;;;;;5.35;4.85;;;;;;;;;;5003134;28;20205;-63
2023/08/29 14:01:23;;;;;;;4.25;3.85;;;;;;;;;;5002507;28;20237;-63
2023/08/29 14:03:50;;;;;;;4.20;3.80;;;;;;;;;;5004911;28;20212;-64
2023/08/29 14:06:17;;;;;;;4.18;3.88;;;;;;;;;;5001664;28;20232;-63
2023/08/29 14:08:48;;;;;;;3.80;3.50;;;;;;;;;;4993249;28;20206;-64
2023/08/29 14:11:15;;;;;;;3.58;3.28;;;;;;;;;;4999211;28;20197;-64
2023/08/29 14:13:42;;;;;;;4.07;3.42;;;;;;;;;;4995494;28;21922;-63
2023/08/29 14:16:09;;;;;;;4.05;3.75;;;;;;;;;;4997310;28;20215;-63
2023/08/29 14:18:36;;;;;;;4.88;4.32;;;;;;;;;;5001838;28;20211;-62
2023/08/29 14:21:03;;;;;;;4.60;4.25;;;;;;;;;;5003948;28;20227;-62
2023/08/29 14:23:31;;;;;;;4.80;4.50;;;;;;;;;;5011297;28;20205;-63
2023/08/29 14:25:59;;;;;;;4.60;4.30;;;;;;;;;;5003792;28;20206;-63
2023/08/29 14:28:26;;;;;;;5.07;4.57;;;;;;;;;;5003740;28;20213;-62
2023/08/29 14:30:53;;;;;;;5.85;4.60;;;;;;;;;;5005521;28;20193;-62
2023/08/29 14:33:21;;;;;;;3.85;3.55;;;;;;;;;;5001257;28;20208;-62
2023/08/29 14:35:54;;;;;;;5.05;3.20;;;;;;;;;;5001664;28;20212;-63
2023/08/29 14:38:21;;;;;;;3.30;3.00;;;;;;;;;;4996103;28;20201;-63
2023/08/29 14:40:49;;;;;;;3.97;3.10;;;;;;;;;;4995050;28;20224;-64
2023/08/29 14:43:17;;;;;;;3.80;3.40;;;;;;;;;;4998236;28;20202;-63